Time;durP1;ratioP1;P1;durP2;ratioP2;P2;SDS_P1;SDS_P2;PMS_P1;PMS_P2;Temp;Humidity;BMP_temperature;BMP_pressure;BME280_temperature;BME280_humidity;BME280_pressure;Samples;Min_cycle;Max_cycle;Signal;HPM_P1;HPM_P2
2022/05/22 00:00:55;;;;;;;14.77;6.85;;;;;;;21.22;68.67;94527.22;5064304;28;20220;-84
2022/05/22 00:03:25;;;;;;;10.95;6.90;;;;;;;21.11;69.32;94527.66;5059062;28;20204;-86
2022/05/22 00:05:55;;;;;;;12.27;6.68;;;;;;;21.05;69.61;94526.94;5058506;28;20680;-86
2022/05/22 00:08:28;;;;;;;7.43;6.13;;;;;;;20.97;69.76;94517.00;5056618;28;20290;-85
2022/05/22 00:11:00;;;;;;;9.73;6.18;;;;;;;20.94;70.01;94523.66;5061323;28;20198;-87
2022/05/22 00:13:32;;;;;;;9.82;6.30;;;;;;;20.95;69.87;94512.00;5061440;28;20228;-86
2022/05/22 00:18:50;;;;;;;8.63;6.53;;;;;;;20.86;70.06;94512.94;5061705;28;20224;-86
2022/05/22 00:21:19;;;;;;;13.70;6.38;;;;;;;20.92;70.06;94525.00;5063254;28;20233;-86
2022/05/22 00:23:49;;;;;;;10.35;6.15;;;;;;;20.89;69.84;94517.66;5061335;28;20210;-87
2022/05/22 00:26:22;;;;;;;6.88;5.93;;;;;;;20.78;70.30;94505.63;5062146;28;20908;-86
2022/05/22 00:28:53;;;;;;;15.10;6.47;;;;;;;20.86;70.10;94510.28;5062091;28;20273;-86
2022/05/22 00:31:24;;;;;;;11.35;6.07;;;;;;;20.85;70.36;94512.13;5061397;28;20227;-86
2022/05/22 00:33:54;;;;;;;7.50;6.07;;;;;;;20.88;70.13;94505.50;5063156;28;20243;-85
2022/05/22 00:36:24;;;;;;;8.63;5.88;;;;;;;20.89;70.09;94505.19;5061417;28;20292;-86
2022/05/22 00:38:55;;;;;;;10.18;6.07;;;;;;;20.87;70.35;94510.00;5062838;28;20196;-84
2022/05/22 00:41:29;;;;;;;5.88;5.28;;;;;;;20.78;70.64;94513.53;5062479;28;20233;-84
2022/05/22 00:44:04;;;;;;;7.80;5.82;;;;;;;20.68;70.90;94503.13;5065329;28;20689;-85
2022/05/22 00:46:36;;;;;;;8.98;5.60;;;;;;;20.63;71.46;94509.28;5061500;28;20748;-87
2022/05/22 00:49:14;;;;;;;9.10;5.65;;;;;;;20.53;71.87;94500.66;5064632;28;20244;-85
2022/05/22 00:51:51;;;;;;;11.30;5.93;;;;;;;20.59;72.15;94510.09;5063232;28;20746;-85
2022/05/22 00:54:27;;;;;;;9.10;6.30;;;;;;;20.55;71.93;94501.19;5063654;28;20274;-86
2022/05/22 00:57:10;;;;;;;9.48;5.85;;;;;;;20.62;72.04;94505.06;5059940;28;20263;-87
2022/05/22 00:59:44;;;;;;;9.38;5.78;;;;;;;20.62;71.88;94502.41;5062275;28;20250;-86
2022/05/22 01:02:15;;;;;;;9.93;5.82;;;;;;;20.55;72.31;94504.59;5063797;28;20201;-86
2022/05/22 01:04:48;;;;;;;7.38;5.93;;;;;;;20.51;72.56;94500.19;5061933;28;20222;-87
2022/05/22 01:07:19;;;;;;;9.75;5.80;;;;;;;20.57;72.04;94509.63;5061844;28;21011;-87
2022/05/22 01:09:52;;;;;;;11.98;5.95;;;;;;;20.52;72.46;94510.44;5060421;28;20194;-86
2022/05/22 01:12:25;;;;;;;9.77;6.03;;;;;;;20.35;73.22;94497.72;5065030;28;21289;-86
2022/05/22 01:14:56;;;;;;;6.70;6.00;;;;;;;20.35;73.32;94505.63;5063346;28;20197;-85
2022/05/22 01:17:25;;;;;;;7.93;5.90;;;;;;;20.51;72.64;94503.59;5059776;28;20705;-87
2022/05/22 01:20:01;;;;;;;8.55;5.82;;;;;;;20.53;72.03;94498.81;5062152;28;20672;-87
2022/05/22 01:22:35;;;;;;;7.15;5.32;;;;;;;20.57;71.63;94502.47;5058029;28;20699;-86
2022/05/22 01:25:07;;;;;;;8.13;5.88;;;;;;;20.64;71.44;94502.91;5062977;28;20197;-86
2022/05/22 01:27:37;;;;;;;9.65;5.60;;;;;;;20.67;70.57;94499.69;5059961;28;20200;-86
2022/05/22 01:30:17;;;;;;;9.95;5.55;;;;;;;20.70;69.59;94503.63;5060201;28;20209;-86
2022/05/22 01:32:51;;;;;;;10.38;5.22;;;;;;;20.73;68.93;94503.06;5058470;28;20629;-86
2022/05/22 01:35:27;;;;;;;8.52;5.47;;;;;;;20.68;68.66;94503.91;5060763;28;20217;-86
2022/05/22 01:38:04;;;;;;;8.27;5.03;;;;;;;20.62;67.56;94491.84;5062179;28;20205;-86
2022/05/22 01:40:36;;;;;;;10.82;5.45;;;;;;;20.65;67.02;94491.28;5061458;28;20248;-87
2022/05/22 01:43:06;;;;;;;7.85;4.85;;;;;;;20.70;65.13;94506.25;5060025;28;20205;-87
2022/05/22 01:45:40;;;;;;;9.52;5.05;;;;;;;20.69;64.57;94500.19;5059528;28;20209;-88
2022/05/22 01:48:12;;;;;;;7.32;5.40;;;;;;;20.62;64.67;94493.69;5062321;28;20201;-87
2022/05/22 01:50:45;;;;;;;9.63;4.90;;;;;;;20.65;63.90;94504.47;5061268;28;20296;-86
2022/05/22 01:53:22;;;;;;;6.30;4.50;;;;;;;20.63;63.56;94504.00;5060546;28;20220;-86
2022/05/22 01:55:52;;;;;;;7.68;4.93;;;;;;;20.58;62.96;94503.25;5060080;28;20198;-87
2022/05/22 01:58:23;;;;;;;7.97;4.80;;;;;;;20.57;62.96;94499.84;5059220;28;20304;-85
2022/05/22 02:00:55;;;;;;;11.98;4.82;;;;;;;20.57;62.18;94504.31;5061028;28;20241;-86
2022/05/22 02:03:24;;;;;;;7.95;4.80;;;;;;;20.59;61.34;94507.47;5064793;28;20220;-88
2022/05/22 02:05:53;;;;;;;8.88;4.30;;;;;;;20.50;60.33;94502.03;5062034;28;20201;-87
2022/05/22 02:08:26;;;;;;;8.48;4.30;;;;;;;20.38;60.14;94502.44;5062362;28;20205;-86
2022/05/22 02:10:58;;;;;;;6.10;4.38;;;;;;;20.36;58.67;94507.22;5061514;28;21157;-87
2022/05/22 02:13:34;;;;;;;7.85;4.45;;;;;;;20.30;58.81;94510.19;5058620;28;20216;-87
2022/05/22 02:16:06;;;;;;;6.80;4.00;;;;;;;20.21;57.99;94504.72;5060809;28;20197;-86
2022/05/22 02:18:38;;;;;;;9.13;4.05;;;;;;;20.17;56.45;94508.22;5062087;28;20216;-87
2022/05/22 02:21:10;;;;;;;8.32;3.97;;;;;;;20.25;54.77;94521.59;5061059;28;20332;-87
2022/05/22 02:23:43;;;;;;;7.32;3.80;;;;;;;20.28;54.35;94520.25;5061206;28;20217;-87
2022/05/22 02:26:16;;;;;;;8.07;3.40;;;;;;;20.23;53.55;94515.75;5062430;28;20201;-87
2022/05/22 02:28:48;;;;;;;5.18;3.97;;;;;;;20.28;53.33;94515.75;5061034;28;20263;-86
2022/05/22 02:31:21;;;;;;;4.20;3.50;;;;;;;20.28;52.38;94514.97;5064004;28;20189;-86
2022/05/22 02:33:53;;;;;;;5.72;3.63;;;;;;;20.13;52.40;94517.75;5061377;28;20204;-86
2022/05/22 02:36:22;;;;;;;4.95;3.60;;;;;;;20.08;52.36;94520.44;5061980;28;20212;-83
2022/05/22 02:38:56;;;;;;;5.80;3.35;;;;;;;20.10;51.72;94519.09;5060798;28;20213;-81
2022/05/22 02:41:26;;;;;;;6.55;3.67;;;;;;;20.16;51.56;94523.25;5059571;28;20249;-82
2022/05/22 02:43:56;;;;;;;5.80;3.58;;;;;;;20.22;51.35;94516.84;5059422;28;21030;-81
2022/05/22 02:46:28;;;;;;;8.30;4.63;;;;;;;20.26;50.91;94523.16;5056623;28;20660;-81
2022/05/22 02:49:01;;;;;;;8.50;5.45;;;;;;;20.26;50.97;94525.00;5060199;28;20192;-81
2022/05/22 02:51:34;;;;;;;15.45;11.43;;;;;;;20.27;50.61;94532.66;5059138;28;20243;-81
2022/05/22 02:54:09;;;;;;;25.55;15.52;;;;;;;20.26;50.95;94525.00;5059059;28;20197;-83
2022/05/22 02:56:44;;;;;;;32.28;22.65;;;;;;;20.30;50.71;94528.66;5055571;28;20235;-80
2022/05/22 02:59:15;;;;;;;19.92;11.68;;;;;;;20.33;50.09;94525.47;5058279;28;20280;-80
2022/05/22 03:01:45;;;;;;;25.05;16.90;;;;;;;20.32;49.82;94535.22;5058802;28;20275;-80
2022/05/22 03:04:17;;;;;;;34.78;23.25;;;;;;;20.23;49.63;94541.41;5062185;28;20212;-82
2022/05/22 03:06:49;;;;;;;38.17;27.33;;;;;;;20.21;49.27;94538.22;5059268;28;20317;-81
2022/05/22 03:09:24;;;;;;;47.22;31.10;;;;;;;20.20;48.82;94544.59;5058811;28;21235;-82
2022/05/22 03:11:57;;;;;;;48.40;32.72;;;;;;;20.15;48.62;94534.88;5060331;28;20243;-82
2022/05/22 03:14:26;;;;;;;25.77;17.85;;;;;;;20.13;47.75;94537.00;5063401;28;20232;-82
2022/05/22 03:16:57;;;;;;;16.55;11.88;;;;;;;20.11;47.67;94541.00;5062203;28;20236;-82
2022/05/22 03:19:30;;;;;;;11.35;8.02;;;;;;;20.09;47.43;94535.19;5059121;28;20576;-81
2022/05/22 03:22:04;;;;;;;14.52;9.57;;;;;;;20.07;46.60;94538.13;5060112;28;20272;-82
2022/05/22 03:24:40;;;;;;;15.55;8.93;;;;;;;20.10;46.13;94548.13;5055050;28;20629;-82
2022/05/22 03:27:17;;;;;;;11.60;7.70;;;;;;;20.11;45.78;94541.78;5060394;28;20945;-82
2022/05/22 03:29:53;;;;;;;14.60;7.20;;;;;;;20.13;45.07;94544.91;5058876;28;20217;-80
2022/05/22 03:32:25;;;;;;;16.63;10.57;;;;;;;20.18;44.43;94550.16;5059844;28;20212;-81
2022/05/22 03:34:55;;;;;;;16.40;10.32;;;;;;;20.22;44.56;94547.75;5059871;28;20206;-82
2022/05/22 03:37:27;;;;;;;13.85;7.32;;;;;;;20.19;44.18;94549.09;5061058;28;20206;-81
2022/05/22 03:39:58;;;;;;;9.20;6.10;;;;;;;20.19;44.39;94551.72;5061053;28;20225;-81
2022/05/22 03:42:27;;;;;;;9.68;5.35;;;;;;;20.22;44.32;94555.66;5062209;28;20237;-81
2022/05/22 03:45:01;;;;;;;8.52;5.80;;;;;;;20.27;44.48;94564.34;5057911;28;20297;-82
2022/05/22 03:47:32;;;;;;;6.75;4.25;;;;;;;20.33;43.11;94557.94;5060246;28;20255;-81
2022/05/22 03:50:05;;;;;;;7.53;3.88;;;;;;;20.37;43.16;94568.72;5059628;28;20213;-81
2022/05/22 03:52:37;;;;;;;7.30;3.83;;;;;;;20.42;43.50;94554.69;5060153;28;20201;-83
2022/05/22 03:55:17;;;;;;;8.20;3.50;;;;;;;20.46;42.66;94556.47;5061439;28;20217;-82
2022/05/22 03:57:53;;;;;;;7.68;3.40;;;;;;;20.46;42.88;94551.19;5061004;28;20197;-82
2022/05/22 04:00:26;;;;;;;5.60;3.05;;;;;;;20.45;43.13;94552.25;5058604;28;20261;-82
2022/05/22 04:03:00;;;;;;;4.00;3.33;;;;;;;20.49;43.02;94555.13;5058894;28;20272;-81
2022/05/22 04:05:30;;;;;;;8.95;3.03;;;;;;;20.48;42.37;94550.91;5063289;28;20236;-81
2022/05/22 04:08:00;;;;;;;5.15;3.28;;;;;;;20.48;42.43;94556.97;5066338;28;20208;-81
2022/05/22 04:10:36;;;;;;;6.32;3.42;;;;;;;20.50;42.73;94549.56;5060217;28;20202;-82
2022/05/22 04:13:12;;;;;;;8.38;3.10;;;;;;;20.56;42.70;94563.50;5064846;28;20292;-82
2022/05/22 04:15:43;;;;;;;8.10;2.80;;;;;;;20.52;43.11;94565.91;5058958;28;20209;-82
2022/05/22 04:18:16;;;;;;;7.30;3.15;;;;;;;20.59;44.00;94568.22;5059717;28;20205;-82
2022/05/22 04:20:50;;;;;;;8.43;3.28;;;;;;;20.63;44.52;94562.09;5057145;28;20294;-82
2022/05/22 04:26:08;;;;;;;10.18;3.13;;;;;;;20.61;43.45;94561.56;5059496;28;20595;-81
2022/05/22 04:28:44;;;;;;;7.93;2.92;;;;;;;20.63;42.80;94561.31;5059682;28;20210;-82
2022/05/22 04:31:13;;;;;;;5.30;2.85;;;;;;;20.63;42.61;94554.19;5061566;28;21535;-82
2022/05/22 04:33:46;;;;;;;5.63;2.75;;;;;;;20.62;42.83;94565.00;5064428;28;20201;-82
2022/05/22 04:36:19;;;;;;;5.28;2.80;;;;;;;20.67;42.95;94564.94;5065992;28;20292;-82
2022/05/22 04:38:49;;;;;;;3.67;2.92;;;;;;;20.62;43.04;94557.88;5063326;28;20312;-83
2022/05/22 04:41:23;;;;;;;6.50;3.10;;;;;;;20.67;43.80;94568.38;5061289;28;20648;-83
2022/05/22 04:43:52;;;;;;;11.00;3.40;;;;;;;20.74;45.16;94568.81;5064137;28;20254;-85
2022/05/22 04:46:23;;;;;;;3.33;2.80;;;;;;;20.72;44.67;94568.31;5060754;28;21110;-84
2022/05/22 04:48:55;;;;;;;9.88;2.95;;;;;;;20.77;45.64;94570.91;5061539;28;20206;-81
2022/05/22 04:51:26;;;;;;;6.07;3.25;;;;;;;20.83;48.80;94564.50;5062623;28;20201;-83
2022/05/22 04:53:56;;;;;;;12.75;3.65;;;;;;;20.90;50.61;94566.75;5062682;28;20270;-81
2022/05/22 04:56:27;;;;;;;5.88;3.20;;;;;;;20.87;45.12;94565.47;5065052;28;20271;-83
2022/05/22 04:59:02;;;;;;;6.35;3.10;;;;;;;20.87;43.22;94565.47;5064518;28;20209;-82
2022/05/22 05:01:34;;;;;;;8.98;2.97;;;;;;;20.88;43.64;94566.28;5061602;28;20603;-81
2022/05/22 05:04:06;;;;;;;3.25;2.80;;;;;;;20.88;43.97;94571.56;5060856;28;20205;-81
2022/05/22 05:06:38;;;;;;;11.32;4.10;;;;;;;20.92;43.68;94573.34;5063451;28;20213;-83
2022/05/22 05:09:10;;;;;;;8.57;5.35;;;;;;;20.93;43.86;94566.19;5061706;28;20213;-82
2022/05/22 05:11:42;;;;;;;8.13;4.90;;;;;;;20.99;43.58;94562.41;5063056;28;20209;-83
2022/05/22 05:14:12;;;;;;;9.07;3.88;;;;;;;21.03;43.77;94571.38;5062977;28;20219;-85
2022/05/22 05:16:42;;;;;;;8.70;3.45;;;;;;;21.10;44.23;94569.16;5062627;28;20648;-82
2022/05/22 05:19:16;;;;;;;8.15;3.65;;;;;;;21.11;44.21;94572.59;5064191;28;20288;-82
2022/05/22 05:21:49;;;;;;;5.63;3.53;;;;;;;21.10;44.14;94566.53;5066717;28;20214;-82
2022/05/22 05:24:21;;;;;;;7.72;3.00;;;;;;;21.12;42.57;94569.69;5063632;28;20232;-85
2022/05/22 05:26:55;;;;;;;7.35;3.33;;;;;;;21.15;43.16;94573.63;5061075;28;20201;-75
2022/05/22 05:29:26;;;;;;;7.05;3.00;;;;;;;21.16;42.64;94575.97;5058290;28;20666;-74
2022/05/22 05:32:00;;;;;;;7.25;3.22;;;;;;;21.15;42.65;94579.69;5058392;28;20626;-74
2022/05/22 05:34:30;;;;;;;4.95;3.17;;;;;;;21.16;41.79;94581.25;5058738;28;20266;-74
2022/05/22 05:36:59;;;;;;;8.38;4.35;;;;;;;21.19;41.03;94583.31;5059292;28;20205;-74
2022/05/22 05:39:33;;;;;;;15.93;4.95;;;;;;;21.22;41.55;94584.59;5058552;28;20216;-74
2022/05/22 05:42:12;;;;;;;8.48;4.05;;;;;;;21.20;41.79;94578.81;5058719;28;20241;-73
2022/05/22 05:44:45;;;;;;;9.82;3.15;;;;;;;21.25;40.80;94581.41;5058949;28;20208;-74
2022/05/22 05:47:17;;;;;;;5.30;2.97;;;;;;;21.29;40.68;94585.06;5061765;28;20189;-74
2022/05/22 05:49:48;;;;;;;5.63;2.60;;;;;;;21.23;41.67;94588.84;5059669;28;20216;-73
2022/05/22 05:52:19;;;;;;;4.30;2.88;;;;;;;21.11;42.66;94591.09;5058572;28;20201;-74
2022/05/22 05:54:50;;;;;;;6.70;2.42;;;;;;;21.19;41.47;94593.09;5057974;28;20205;-74
2022/05/22 05:57:21;;;;;;;7.10;2.53;;;;;;;21.13;41.81;94592.38;5056758;28;20280;-74
2022/05/22 05:59:57;;;;;;;7.85;2.20;;;;;;;21.10;42.00;94586.88;5058412;28;20193;-74
2022/05/22 06:02:25;;;;;;;4.60;2.40;;;;;;;21.06;41.64;94597.22;5057683;28;20723;-74
2022/05/22 06:04:56;;;;;;;6.18;2.30;;;;;;;21.03;41.05;94595.16;5056554;28;20949;-74
2022/05/22 06:07:26;;;;;;;7.28;2.50;;;;;;;20.93;41.33;94597.91;5060688;28;20220;-83
2022/05/22 06:09:55;;;;;;;7.07;2.42;;;;;;;20.98;41.49;94602.38;5065187;28;20698;-87
2022/05/22 06:12:25;;;;;;;11.48;2.45;;;;;;;20.89;42.02;94596.91;5070185;28;20287;-88
2022/05/22 06:14:56;;;;;;;4.53;2.40;;;;;;;20.92;42.46;94588.44;5064360;28;20734;-85
2022/05/22 06:17:33;;;;;;;5.10;2.70;;;;;;;21.04;42.42;94596.69;5063312;28;20186;-87
2022/05/22 06:20:05;;;;;;;5.90;2.20;;;;;;;21.05;42.04;94600.94;5059761;28;20190;-75
2022/05/22 06:22:36;;;;;;;5.65;2.75;;;;;;;21.10;42.13;94600.09;5057189;28;20201;-86
2022/05/22 06:25:09;;;;;;;5.20;2.67;;;;;;;21.09;42.31;94599.34;5060113;28;20201;-80
2022/05/22 06:27:39;;;;;;;7.38;2.80;;;;;;;21.09;42.16;94601.19;5059735;28;20201;-80
2022/05/22 06:30:18;;;;;;;8.50;2.58;;;;;;;21.09;41.74;94598.53;5058848;28;21273;-83
2022/05/22 06:32:48;;;;;;;6.10;2.40;;;;;;;21.05;42.05;94594.84;5061365;28;20667;-83
2022/05/22 06:35:19;;;;;;;3.75;2.55;;;;;;;20.98;42.12;94594.44;5059475;28;20197;-80
2022/05/22 06:37:51;;;;;;;13.90;2.92;;;;;;;20.92;42.62;94594.47;5059001;28;20201;-83
2022/05/22 06:40:20;;;;;;;10.00;3.40;;;;;;;20.80;43.06;94594.13;5059711;28;20312;-79
2022/05/22 06:42:51;;;;;;;11.85;4.28;;;;;;;20.80;43.38;94598.63;5053930;28;20228;-79
2022/05/22 06:45:22;;;;;;;7.30;3.75;;;;;;;20.86;43.25;94585.06;5057131;28;20209;-79
2022/05/22 06:47:54;;;;;;;5.03;3.63;;;;;;;20.90;43.11;94586.06;5058011;28;20201;-80
2022/05/22 06:50:27;;;;;;;6.80;4.20;;;;;;;20.89;43.81;94587.09;5060457;28;20574;-80
2022/05/22 06:53:00;;;;;;;9.50;4.57;;;;;;;20.94;44.31;94586.28;5060621;28;21301;-81
2022/05/22 06:55:36;;;;;;;10.73;4.10;;;;;;;20.97;44.34;94580.44;5055083;28;20657;-81
2022/05/22 06:58:10;;;;;;;5.50;3.35;;;;;;;21.12;44.77;94579.47;5058917;28;20196;-84
2022/05/22 07:00:42;;;;;;;8.77;3.05;;;;;;;21.39;43.86;94584.88;5059555;28;20212;-83
2022/05/22 07:03:13;;;;;;;7.28;3.03;;;;;;;21.49;44.15;94588.19;5060628;28;20680;-83
2022/05/22 07:05:46;;;;;;;4.80;3.30;;;;;;;21.51;44.25;94579.97;5057957;28;20205;-82
2022/05/22 07:08:18;;;;;;;5.45;2.92;;;;;;;21.57;44.33;94580.66;5060127;28;20216;-83
2022/05/22 07:13:37;;;;;;;7.53;3.25;;;;;;;21.60;43.88;94580.88;5060922;28;20212;-81
2022/05/22 07:16:08;;;;;;;4.03;2.53;;;;;;;21.61;44.47;94576.38;5059493;28;20204;-80
2022/05/22 07:18:41;;;;;;;6.93;2.95;;;;;;;21.48;45.51;94572.59;5056007;28;20224;-81
2022/05/22 07:21:12;;;;;;;6.53;2.80;;;;;;;21.51;45.71;94569.38;5057957;28;20213;-80
2022/05/22 07:23:42;;;;;;;4.78;2.75;;;;;;;21.53;45.95;94577.03;5062022;28;20292;-81
2022/05/22 07:26:14;;;;;;;6.10;3.28;;;;;;;21.49;46.36;94580.25;5040515;28;20205;-81
2022/05/22 07:28:46;;;;;;;6.90;2.97;;;;;;;21.39;47.40;94580.41;5057515;28;20291;-80
2022/05/22 07:31:24;;;;;;;8.32;3.90;;;;;;;21.46;46.58;94575.53;5061738;28;20947;-81
2022/05/22 07:33:54;;;;;;;7.78;3.78;;;;;;;21.62;47.25;94586.66;5058884;28;20204;-81
2022/05/22 07:36:22;;;;;;;4.43;2.80;;;;;;;21.75;46.32;94588.59;5059861;28;20693;-81
2022/05/22 07:38:54;;;;;;;5.18;2.83;;;;;;;21.80;45.71;94580.56;5061708;28;20197;-81
2022/05/22 07:41:24;;;;;;;6.28;2.60;;;;;;;21.83;44.62;94581.84;5063139;28;20313;-74
2022/05/22 07:43:56;;;;;;;6.65;2.30;;;;;;;21.83;44.69;94577.34;5062349;28;20296;-78
2022/05/22 07:46:27;;;;;;;6.55;2.67;;;;;;;21.85;44.69;94577.81;5061941;28;20649;-79
2022/05/22 07:48:57;;;;;;;4.95;2.67;;;;;;;22.01;44.42;94573.09;5063147;28;20194;-79
2022/05/22 07:51:26;;;;;;;6.47;2.75;;;;;;;22.05;44.49;94566.94;5059276;28;20209;-80
2022/05/22 07:53:57;;;;;;;5.63;2.80;;;;;;;22.24;45.42;94564.22;5061101;28;20216;-80
2022/05/22 07:56:28;;;;;;;7.95;2.88;;;;;;;22.20;45.46;94551.84;5058660;28;21862;-80
2022/05/22 07:59:01;;;;;;;7.30;3.15;;;;;;;22.23;46.20;94565.28;5060000;28;20639;-78
2022/05/22 08:01:34;;;;;;;7.40;2.75;;;;;;;22.28;45.88;94557.25;5062007;28;20267;-81
2022/05/22 08:04:05;;;;;;;8.20;3.05;;;;;;;22.29;45.62;94555.38;5063786;28;20205;-79
2022/05/22 08:06:37;;;;;;;7.35;2.85;;;;;;;22.10;45.03;94541.44;5062681;28;20209;-79
2022/05/22 08:09:08;;;;;;;9.95;3.13;;;;;;;21.88;45.29;94537.59;5063382;28;20217;-80
2022/05/22 08:11:41;;;;;;;5.97;2.80;;;;;;;21.81;45.31;94534.50;5063844;28;21579;-81
2022/05/22 08:14:16;;;;;;;5.25;2.60;;;;;;;21.83;45.89;94529.69;5063472;28;20205;-81
2022/05/22 08:16:48;;;;;;;6.63;3.85;;;;;;;21.85;45.53;94529.41;5062356;28;20265;-81
2022/05/22 08:19:21;;;;;;;10.07;5.20;;;;;;;21.75;45.53;94522.44;5062470;28;20292;-81
2022/05/22 08:21:50;;;;;;;8.00;3.80;;;;;;;21.67;45.98;94528.41;5060087;28;20313;-79
2022/05/22 08:24:19;;;;;;;6.47;3.70;;;;;;;21.77;46.24;94520.28;5059199;28;20225;-80
2022/05/22 08:26:51;;;;;;;7.97;3.70;;;;;;;21.77;46.23;94516.84;5060883;28;20237;-82
2022/05/22 08:29:21;;;;;;;9.93;3.67;;;;;;;21.77;46.93;94516.84;5060364;28;21513;-80
2022/05/22 08:31:55;;;;;;;6.18;3.72;;;;;;;21.85;47.29;94516.16;5061466;28;20281;-80
2022/05/22 08:34:24;;;;;;;9.05;3.30;;;;;;;21.96;47.30;94510.44;5062541;28;20201;-80
2022/05/22 08:36:52;;;;;;;6.05;3.22;;;;;;;21.84;48.21;94512.75;5062119;28;20241;-79
2022/05/22 08:39:22;;;;;;;6.75;2.97;;;;;;;21.71;48.97;94516.16;5058446;28;20201;-78
2022/05/22 08:41:53;;;;;;;6.53;3.13;;;;;;;21.53;49.94;94513.56;5058432;28;20225;-78
2022/05/22 08:44:31;;;;;;;5.93;3.28;;;;;;;21.54;50.66;94512.47;5058424;28;20236;-78
2022/05/22 08:47:08;;;;;;;10.05;3.33;;;;;;;21.47;50.85;94495.09;5061859;28;20196;-78
2022/05/22 08:49:47;;;;;;;7.00;3.08;;;;;;;21.49;50.67;94510.69;5062715;28;20186;-83
2022/05/22 08:52:24;;;;;;;6.43;3.05;;;;;;;21.44;51.98;94510.78;5062546;28;21008;-83
2022/05/22 08:55:03;;;;;;;5.85;2.90;;;;;;;21.28;53.09;94509.44;5059160;28;20325;-82
2022/05/22 09:00:33;;;;;;;4.55;3.08;;;;;;;20.93;53.21;94503.56;5060527;28;20311;-79
2022/05/22 09:03:08;;;;;;;8.75;3.17;;;;;;;20.77;53.89;94517.28;5062170;28;20703;-82
2022/05/22 09:05:42;;;;;;;5.75;3.00;;;;;;;20.59;54.29;94507.47;5062612;28;20209;-84
2022/05/22 09:08:22;;;;;;;9.38;3.28;;;;;;;20.56;53.53;94513.31;5063451;28;20279;-83
2022/05/22 09:11:04;;;;;;;3.92;3.20;;;;;;;20.49;53.78;94507.59;5061879;28;20285;-82
2022/05/22 09:13:42;;;;;;;7.30;3.20;;;;;;;20.49;53.28;94521.56;5060679;28;20204;-81
2022/05/22 09:16:19;;;;;;;10.10;3.92;;;;;;;20.49;53.72;94516.28;5062181;28;20893;-75
2022/05/22 09:19:05;;;;;;;4.65;3.05;;;;;;;20.52;53.47;94507.81;5059233;28;20200;-76
2022/05/22 09:21:49;;;;;;;6.60;3.17;;;;;;;20.61;52.98;94515.88;5058118;28;20193;-83
2022/05/22 09:24:29;;;;;;;9.23;3.20;;;;;;;20.62;53.16;94517.47;5062562;28;20198;-81
2022/05/22 09:27:10;;;;;;;5.88;3.08;;;;;;;20.61;53.87;94503.47;5065424;28;20219;-83
2022/05/22 09:29:56;;;;;;;6.13;3.20;;;;;;;20.76;53.97;94497.19;5062726;28;20224;-82
2022/05/22 09:32:43;;;;;;;7.13;3.40;;;;;;;20.80;53.22;94496.38;5063563;28;20204;-82
2022/05/22 09:35:25;;;;;;;11.38;4.50;;;;;;;21.10;53.20;94502.28;5064064;28;20231;-84
2022/05/22 09:38:08;;;;;;;6.50;3.15;;;;;;;21.14;54.04;94501.44;5060696;28;20289;-82
2022/05/22 09:40:48;;;;;;;10.70;3.25;;;;;;;21.22;53.79;94492.06;5060076;28;20809;-83
2022/05/22 09:43:44;;;;;;;9.85;3.40;;;;;;;21.26;51.75;94450.78;5058534;28;20217;-81
2022/05/22 09:46:30;;;;;;;4.57;2.45;;;;;;;21.90;49.03;94484.38;5057480;28;20198;-83
2022/05/22 09:49:29;;;;;;;6.25;2.65;;;;;;;22.19;47.82;94482.25;5057594;28;20204;-81
2022/05/22 09:52:07;;;;;;;5.50;2.72;;;;;;;22.41;47.54;94466.44;5057418;28;20946;-80
2022/05/22 09:54:53;;;;;;;10.77;2.97;;;;;;;22.63;47.88;94466.50;5057033;28;20281;-78
2022/05/22 09:57:37;;;;;;;6.57;2.50;;;;;;;22.81;46.00;94467.47;5058130;28;20253;-82
2022/05/22 10:00:19;;;;;;;5.25;2.47;;;;;;;22.89;46.00;94468.59;5058614;28;20815;-80
2022/05/22 10:02:58;;;;;;;5.72;3.00;;;;;;;23.13;45.83;94459.31;5057451;28;20210;-77
2022/05/22 10:05:41;;;;;;;4.95;2.72;;;;;;;23.43;45.43;94449.88;5058394;28;20288;-78
2022/05/22 10:08:28;;;;;;;7.53;2.47;;;;;;;23.76;44.19;94453.00;5060084;28;20385;-76
2022/05/22 10:11:06;;;;;;;6.97;2.63;;;;;;;23.85;43.94;94445.09;5059579;28;20204;-79
2022/05/22 10:13:47;;;;;;;10.63;2.90;;;;;;;23.89;43.52;94436.22;5059573;28;20201;-77
2022/05/22 10:16:36;;;;;;;4.78;2.40;;;;;;;24.03;42.37;94436.13;5057824;28;20208;-78
2022/05/22 10:19:21;;;;;;;4.63;2.40;;;;;;;23.91;42.24;94442.00;5058435;28;20201;-80
2022/05/22 10:21:58;;;;;;;6.43;2.47;;;;;;;23.77;41.79;94443.19;5061093;28;20189;-80
2022/05/22 10:24:48;;;;;;;5.28;2.20;;;;;;;23.70;42.33;94428.47;5055343;28;20213;-81
2022/05/22 10:27:57;;;;;;;5.80;2.28;;;;;;;23.57;42.87;94436.53;5058067;28;20290;-77
2022/05/22 10:30:31;;;;;;;8.60;2.72;;;;;;;23.62;43.33;94431.09;5058630;28;20209;-77
2022/05/22 10:33:05;;;;;;;5.15;2.40;;;;;;;23.48;43.29;94428.53;5054449;28;20198;-79
2022/05/22 10:35:42;;;;;;;7.38;2.67;;;;;;;23.38;44.16;94427.94;5055085;28;20208;-79
2022/05/22 10:38:21;;;;;;;4.95;2.60;;;;;;;23.29;43.81;94419.94;5055437;28;20201;-77
2022/05/22 10:43:37;;;;;;;8.90;3.30;;;;;;;23.42;44.54;94419.13;5054475;28;20216;-77
2022/05/22 10:46:07;;;;;;;10.63;3.40;;;;;;;23.68;43.71;94424.56;5056106;28;20292;-76
2022/05/22 10:48:48;;;;;;;12.18;4.97;;;;;;;23.70;44.11;94423.16;5052510;28;20282;-77
2022/05/22 10:51:33;;;;;;;17.27;8.27;;;;;;;23.88;43.25;94417.94;5056220;28;20205;-76
2022/05/22 10:54:05;;;;;;;37.45;15.90;;;;;;;23.90;43.42;94413.09;5054600;28;20600;-76
2022/05/22 10:56:41;;;;;;;25.42;10.98;;;;;;;24.14;43.76;94411.66;5054663;28;20683;-76
2022/05/22 10:59:22;;;;;;;12.05;6.20;;;;;;;24.23;43.27;94414.34;5057500;28;20216;-77
2022/05/22 11:02:05;;;;;;;5.18;2.80;;;;;;;23.96;43.16;94410.00;5058237;28;20681;-78
2022/05/22 11:04:41;;;;;;;8.18;2.80;;;;;;;24.15;42.17;94413.25;5058650;28;20621;-77
2022/05/22 11:07:11;;;;;;;9.43;2.80;;;;;;;24.61;42.39;94415.34;5056552;28;20205;-77
2022/05/22 11:09:51;;;;;;;2.95;2.38;;;;;;;25.23;41.80;94420.38;5053743;28;20531;-78
2022/05/22 11:12:25;;;;;;;7.43;2.75;;;;;;;25.64;41.57;94415.31;5053177;28;20876;-76
2022/05/22 11:15:10;;;;;;;6.53;2.65;;;;;;;25.70;40.28;94411.38;5058691;28;20204;-76
2022/05/22 11:17:45;;;;;;;5.20;2.60;;;;;;;25.66;40.95;94417.66;5059197;28;20223;-77
2022/05/22 11:20:22;;;;;;;7.18;2.60;;;;;;;25.21;42.30;94406.59;5059781;28;20335;-77
2022/05/22 11:23:02;;;;;;;4.85;2.60;;;;;;;25.42;42.15;94404.84;5059946;28;20220;-78
2022/05/22 11:25:45;;;;;;;3.35;2.55;;;;;;;25.48;41.26;94406.28;5058916;28;20205;-75
2022/05/22 11:28:56;;;;;;;3.72;2.40;;;;;;;24.94;42.08;94398.94;5059762;28;20209;-76
2022/05/22 11:31:53;;;;;;;8.35;2.60;;;;;;;24.71;42.42;94399.09;5059092;28;20388;-76
2022/05/22 11:34:49;;;;;;;10.77;3.20;;;;;;;24.46;44.39;94383.91;5059041;28;20201;-79
2022/05/22 11:37:24;;;;;;;6.18;3.75;;;;;;;24.34;44.41;94390.91;5055294;28;20297;-77
2022/05/22 11:40:04;;;;;;;8.50;4.90;;;;;;;24.27;45.10;94378.88;5057625;28;20668;-77
2022/05/22 11:42:37;;;;;;;6.85;3.33;;;;;;;24.19;43.18;94374.31;5058179;28;20244;-79
2022/05/22 11:45:38;;;;;;;7.35;2.60;;;;;;;24.20;41.97;94375.09;5060320;28;20687;-77
2022/05/22 11:48:31;;;;;;;5.20;2.20;;;;;;;23.78;43.80;94375.75;5059032;28;20751;-77
2022/05/22 11:51:18;;;;;;;5.78;2.35;;;;;;;23.55;44.33;94383.75;5058621;28;20203;-78
2022/05/22 11:54:12;;;;;;;6.50;2.63;;;;;;;23.34;44.60;94389.88;5059052;28;20209;-77
2022/05/22 11:56:56;;;;;;;3.08;2.30;;;;;;;23.02;44.53;94385.59;5058560;28;20206;-78
2022/05/22 11:59:55;;;;;;;4.20;2.60;;;;;;;22.74;45.51;94394.75;5057761;28;20201;-78
2022/05/22 12:02:39;;;;;;;6.63;2.58;;;;;;;22.62;45.63;94395.25;5052696;28;20281;-78
2022/05/22 12:05:26;;;;;;;6.55;2.88;;;;;;;22.56;45.98;94401.75;5057257;28;20209;-78
2022/05/22 12:08:26;;;;;;;5.65;2.42;;;;;;;22.56;46.02;94391.94;5059766;28;20197;-79
2022/05/22 12:11:03;;;;;;;6.05;2.65;;;;;;;22.60;46.40;94387.59;5057436;28;20587;-78
2022/05/22 12:13:40;;;;;;;8.30;3.22;;;;;;;22.61;46.91;94391.81;5058397;28;20293;-79
2022/05/22 12:16:17;;;;;;;5.32;3.00;;;;;;;22.72;47.44;94413.59;5057857;28;20216;-78
2022/05/22 12:18:57;;;;;;;10.27;2.80;;;;;;;22.74;47.13;94392.88;5058825;28;20325;-79
2022/05/22 12:21:35;;;;;;;5.10;2.50;;;;;;;22.82;46.07;94394.03;5058577;28;20209;-78